Time;durP1;ratioP1;P1;durP2;ratioP2;P2;SDS_P1;SDS_P2;PMS_P1;PMS_P2;Temp;Humidity;BMP_temperature;BMP_pressure;BME280_temperature;BME280_humidity;BME280_pressure;Samples;Min_cycle;Max_cycle;Signal;HPM_P1;HPM_P2
2021/08/04 00:00:22;;;;;;;6.60;2.03;;;;;;;14.33;100.00;34180.63;5060335;28;20090;-71
2021/08/04 00:02:48;;;;;;;5.50;1.90;;;;;;;14.34;100.00;37485.44;5059757;28;20059;-71
2021/08/04 00:05:14;;;;;;;4.80;2.10;;;;;;;14.28;100.00;31536.75;5060428;28;20040;-71
2021/08/04 00:07:39;;;;;;;4.63;2.10;;;;;;;14.26;100.00;31865.84;5060413;28;20116;-68
2021/08/04 00:10:05;;;;;;;6.30;2.50;;;;;;;14.24;100.00;29225.91;5060445;28;20499;-68
2021/08/04 00:12:31;;;;;;;4.77;1.93;;;;;;;14.30;100.00;31208.25;5060050;28;20253;-68
2021/08/04 00:14:56;;;;;;;5.97;2.70;;;;;;;14.27;100.00;31206.22;5054290;28;20122;-68
2021/08/04 00:17:22;;;;;;;5.37;2.00;;;;;;;14.23;100.00;26259.06;5060134;28;20043;-68
2021/08/04 00:19:47;;;;;;;5.00;2.00;;;;;;;14.24;100.00;29555.66;5059905;28;20032;-68
2021/08/04 00:22:13;;;;;;;6.70;2.33;;;;;;;14.33;100.00;40130.44;5060317;28;20297;-68
2021/08/04 00:24:38;;;;;;;5.10;2.27;;;;;;;14.27;100.00;41780.91;5059910;28;20260;-68
2021/08/04 00:27:07;;;;;;;9.27;2.43;;;;;;;14.27;100.00;41119.03;5060492;28;20492;-68
2021/08/04 00:29:32;;;;;;;6.03;2.10;;;;;;;14.24;100.00;38801.03;5059720;28;20036;-68
2021/08/04 00:31:58;;;;;;;4.97;1.97;;;;;;;14.24;100.00;37809.22;5065019;28;20032;-68
2021/08/04 00:34:23;;;;;;;6.67;2.33;;;;;;;14.28;100.00;38804.19;5059774;28;20033;-68
2021/08/04 00:36:49;;;;;;;6.60;2.17;;;;;;;14.30;100.00;39797.47;5060177;28;20063;-68
2021/08/04 00:39:16;;;;;;;4.73;2.43;;;;;;;14.23;100.00;32854.16;5059730;28;20390;-68
2021/08/04 00:41:45;;;;;;;6.70;2.23;;;;;;;14.22;100.00;20005.66;5059894;28;20279;-68
2021/08/04 00:44:11;;;;;;;4.23;1.90;;;;;;;14.24;100.00;17048.53;5059667;28;20040;-68
2021/08/04 00:46:44;;;;;;;5.80;2.23;;;;;;;14.32;100.00;24287.28;5059666;28;20456;-68
2021/08/04 00:49:11;;;;;;;5.57;2.10;;;;;;;14.28;100.00;17378.44;5059305;28;20149;-68
2021/08/04 00:51:36;;;;;;;6.13;2.10;;;;;;;14.24;100.00;7535.59;5059848;28;20242;-68
2021/08/04 00:54:06;;;;;;;5.47;2.30;;;;;;;14.23;100.00;1317.63;5059702;28;20046;-68
2021/08/04 00:56:32;;;;;;;4.10;2.00;;;;;;;14.21;100.00;-19536.13;5060082;28;20028;-72
2021/08/04 00:58:59;;;;;;;3.97;1.90;;;;;;;14.25;100.00;-19537.16;5059535;28;20032;-72
2021/08/04 01:01:33;;;;;;;3.73;1.90;;;;;;;14.24;100.00;-19537.03;5060518;28;20079;-71
2021/08/04 01:04:06;;;;;;;5.47;2.00;;;;;;;14.28;100.00;-19537.97;5065282;22;20434;-67
2021/08/04 01:06:39;;;;;;;4.20;1.90;;;;;;;14.29;100.00;-19538.22;5059902;28;20031;-67
2021/08/04 01:09:08;;;;;;;5.43;1.77;;;;;;;14.28;100.00;-19537.97;5063083;28;20103;-67
2021/08/04 01:11:38;;;;;;;4.10;1.83;;;;;;;14.27;100.00;-19537.69;5060836;28;20070;-67
2021/08/04 01:14:08;;;;;;;4.10;2.00;;;;;;;14.24;100.00;-19537.03;5067070;28;20024;-67
2021/08/04 01:16:38;;;;;;;4.57;1.83;;;;;;;14.23;100.00;-19536.66;5077409;28;20028;-67
2021/08/04 01:19:21;;;;;;;5.03;2.40;;;;;;;14.23;100.00;-19536.66;5066812;28;20025;-66
2021/08/04 01:22:51;;;;;;;4.67;1.90;;;;;;;14.19;100.00;-19535.59;5066507;28;20035;-67
2021/08/04 01:25:19;;;;;;;5.00;2.47;;;;;;;14.16;100.00;-19534.81;4943107;28;20539;-69
2021/08/04 01:27:48;;;;;;;7.23;2.00;;;;;;;14.15;100.00;-19534.56;4988222;28;20650;-69
2021/08/04 01:30:14;;;;;;;6.70;2.30;;;;;;;14.11;100.00;-19533.50;4985670;28;20104;-69
2021/08/04 01:32:40;;;;;;;5.70;2.37;;;;;;;14.13;100.00;-18768.38;4978708;28;20489;-69
2021/08/04 01:35:07;;;;;;;5.00;2.37;;;;;;;14.15;100.00;-17100.72;4977120;28;20049;-67
2021/08/04 01:37:35;;;;;;;7.47;3.10;;;;;;;14.20;100.00;-5214.59;4977435;28;20418;-69
2021/08/04 01:40:07;;;;;;;5.60;2.43;;;;;;;14.11;100.00;-8149.06;4979191;28;20188;-69
2021/08/04 01:42:35;;;;;;;4.78;2.00;;;;;;;14.07;100.00;-15092.56;4977157;28;20042;-69
2021/08/04 01:45:03;;;;;;;4.87;2.30;;;;;;;14.07;100.00;-3909.19;4980325;28;20045;-69
2021/08/04 01:47:31;;;;;;;5.17;2.20;;;;;;;14.06;100.00;-2277.09;4985526;28;20127;-69
2021/08/04 01:49:58;;;;;;;4.63;2.17;;;;;;;14.05;100.00;-11731.56;4984460;28;20026;-69
2021/08/04 01:52:24;;;;;;;7.07;2.17;;;;;;;14.10;100.00;-19533.25;4995287;28;20034;-69
2021/08/04 01:54:51;;;;;;;5.03;2.30;;;;;;;14.10;100.00;-19533.38;4991359;28;20073;-69
2021/08/04 01:57:17;;;;;;;4.20;2.10;;;;;;;14.14;100.00;-19534.28;4991116;28;20529;-69
2021/08/04 01:59:43;;;;;;;5.50;2.67;;;;;;;14.14;100.00;-19534.41;5063753;28;20040;-69
2021/08/04 02:02:20;;;;;;;5.80;2.10;;;;;;;14.18;100.00;-19535.34;5082987;28;20131;-69
2021/08/04 02:04:46;;;;;;;4.40;2.10;;;;;;;14.17;100.00;-19535.19;5062689;28;20453;-69
2021/08/04 02:07:34;;;;;;;4.97;1.93;;;;;;;14.16;100.00;-19534.81;5061855;28;20032;-69
2021/08/04 02:10:03;;;;;;;5.40;2.20;;;;;;;14.16;100.00;-19534.81;5058599;28;20486;-69
2021/08/04 02:12:31;;;;;;;4.87;2.27;;;;;;;14.16;100.00;-19534.81;5073268;28;20101;-69
2021/08/04 02:15:08;;;;;;;4.20;1.70;;;;;;;14.17;100.00;-19535.06;5066306;28;20028;-69
2021/08/04 02:17:56;;;;;;;6.13;2.07;;;;;;;14.19;100.00;-19535.59;5067499;28;20039;-69
2021/08/04 02:20:38;;;;;;;4.70;1.90;;;;;;;14.15;100.00;-19534.56;5056247;28;20393;-69
2021/08/04 02:23:11;;;;;;;6.20;2.05;;;;;;;14.14;100.00;-19534.41;5057755;28;20029;-67
2021/08/04 02:25:45;;;;;;;4.30;1.97;;;;;;;14.05;100.00;-19532.19;5062647;28;20180;-67
2021/08/04 02:28:16;;;;;;;6.23;2.07;;;;;;;13.97;100.00;-19530.09;5056441;28;20381;-67
2021/08/04 02:30:42;;;;;;;5.40;2.00;;;;;;;13.86;100.00;-19527.22;5057679;28;20353;-67
2021/08/04 02:33:08;;;;;;;4.37;1.97;;;;;;;13.98;100.00;7858.38;5071843;28;20157;-67
2021/08/04 02:35:34;;;;;;;6.80;1.90;;;;;;;13.92;100.00;16053.16;5055968;28;20051;-66
2021/08/04 02:38:00;;;;;;;5.10;2.27;;;;;;;13.90;100.00;21636.94;5063365;28;20094;-66
2021/08/04 02:40:25;;;;;;;5.43;2.30;;;;;;;13.84;100.00;21634.44;5058759;28;20028;-66
2021/08/04 02:42:54;;;;;;;7.23;2.53;;;;;;;13.77;100.00;21303.03;5059248;28;20033;-67
2021/08/04 02:45:19;;;;;;;7.13;2.43;;;;;;;13.82;100.00;30192.06;5071056;28;20029;-67
2021/08/04 02:47:46;;;;;;;4.83;2.37;;;;;;;13.84;100.00;36461.41;5062018;28;20268;-67
2021/08/04 02:50:13;;;;;;;5.97;2.20;;;;;;;13.82;100.00;43070.31;5059754;28;20629;-67
2021/08/04 02:52:40;;;;;;;7.03;2.60;;;;;;;13.88;100.00;48705.13;5068616;28;20491;-67
2021/08/04 02:55:06;;;;;;;7.03;2.63;;;;;;;13.86;100.00;49697.41;5065789;28;20198;-67
2021/08/04 02:57:31;;;;;;;5.67;2.17;;;;;;;13.83;100.00;50689.88;5063653;28;20036;-67
2021/08/04 02:59:57;;;;;;;6.73;2.53;;;;;;;13.85;100.00;53677.56;5063829;28;20193;-67
2021/08/04 03:02:22;;;;;;;7.97;2.53;;;;;;;13.89;100.00;56670.09;5075920;28;20508;-67
2021/08/04 03:04:48;;;;;;;9.83;2.70;;;;;;;13.82;100.00;57327.56;5077160;28;20187;-67
2021/08/04 03:07:13;;;;;;;6.47;2.40;;;;;;;13.77;100.00;57322.50;5063971;28;20081;-67
2021/08/04 03:09:39;;;;;;;7.73;2.83;;;;;;;13.73;100.00;57651.19;5067805;28;20021;-67
2021/08/04 03:12:05;;;;;;;6.20;2.37;;;;;;;13.73;100.00;58648.06;5069748;28;20024;-67
2021/08/04 03:14:31;;;;;;;7.07;2.90;;;;;;;13.71;100.00;59310.19;5079023;28;20043;-67
2021/08/04 03:16:56;;;;;;;9.40;2.80;;;;;;;13.74;100.00;60975.75;5074133;28;20454;-67
2021/08/04 03:19:22;;;;;;;7.60;3.00;;;;;;;13.73;100.00;62305.72;5060447;28;20480;-67
2021/08/04 03:21:47;;;;;;;7.07;3.00;;;;;;;13.78;100.00;64640.47;5062631;28;20275;-67
2021/08/04 03:24:13;;;;;;;6.73;3.00;;;;;;;13.75;100.00;64304.16;5069749;28;20451;-67
2021/08/04 03:26:38;;;;;;;11.80;3.30;;;;;;;13.74;100.00;63970.16;5061520;28;20044;-67
2021/08/04 03:29:04;;;;;;;9.10;3.23;;;;;;;13.68;100.00;63298.41;5052119;28;20036;-67
2021/08/04 03:31:29;;;;;;;8.53;3.17;;;;;;;13.62;100.00;60963.44;5065618;28;20385;-67
2021/08/04 03:33:55;;;;;;;8.30;3.20;;;;;;;13.57;100.00;60293.19;5059323;28;20115;-67
2021/08/04 03:36:22;;;;;;;6.90;3.10;;;;;;;13.62;100.00;59633.16;5062634;28;20035;-67
2021/08/04 03:38:47;;;;;;;7.90;3.00;;;;;;;13.57;100.00;60957.53;5061549;28;20032;-68
2021/08/04 03:41:12;;;;;;;7.50;3.30;;;;;;;13.56;100.00;59626.84;5061961;28;20416;-69
2021/08/04 03:43:38;;;;;;;8.57;3.07;;;;;;;13.51;100.00;57296.25;5053947;28;20159;-69
2021/08/04 03:46:03;;;;;;;8.07;2.93;;;;;;;13.54;100.00;57299.28;5066226;28;20036;-68
2021/08/04 03:48:29;;;;;;;11.43;3.43;;;;;;;13.49;100.00;55303.38;5055851;28;20084;-69
2021/08/04 03:50:54;;;;;;;7.03;3.23;;;;;;;13.48;100.00;53643.41;5061714;28;20036;-69
2021/08/04 03:53:20;;;;;;;14.73;3.27;;;;;;;13.46;100.00;52314.97;5055231;28;20029;-69
2021/08/04 03:55:45;;;;;;;11.53;3.57;;;;;;;13.48;100.00;52316.81;5061348;28;20385;-69
2021/08/04 03:58:11;;;;;;;8.73;3.10;;;;;;;13.57;100.00;58298.78;5056494;28;20033;-69
2021/08/04 04:00:36;;;;;;;9.57;3.67;;;;;;;13.54;100.00;59292.97;5070964;28;20552;-69
2021/08/04 04:03:02;;;;;;;9.27;3.40;;;;;;;13.59;100.00;59630.00;5058673;28;20070;-69
2021/08/04 04:05:27;;;;;;;13.20;3.70;;;;;;;13.51;100.00;57296.25;5061586;28;20045;-69
2021/08/04 04:07:53;;;;;;;10.27;4.07;;;;;;;13.49;100.00;56963.19;5058265;28;20040;-69
2021/08/04 04:10:18;;;;;;;8.27;3.60;;;;;;;13.54;100.00;58960.16;5060565;28;20017;-69
2021/08/04 04:12:44;;;;;;;10.20;3.50;;;;;;;13.60;100.00;61958.38;5059795;28;20039;-67
2021/08/04 04:15:10;;;;;;;10.10;3.57;;;;;;;13.61;100.00;64288.41;5071746;28;20027;-67
2021/08/04 04:17:36;;;;;;;9.50;3.23;;;;;;;13.57;100.00;62953.50;5067540;28;20504;-67
2021/08/04 04:20:01;;;;;;;8.63;3.87;;;;;;;13.54;100.00;62284.41;5065486;28;20023;-67
2021/08/04 04:22:27;;;;;;;7.87;3.50;;;;;;;13.58;100.00;63619.47;5077729;28;20107;-67
2021/08/04 04:24:52;;;;;;;10.73;3.73;;;;;;;13.61;100.00;65619.94;5078145;28;20333;-67
2021/08/04 04:27:21;;;;;;;8.47;3.80;;;;;;;13.65;100.00;68289.34;5081095;28;20028;-67
2021/08/04 04:29:47;;;;;;;10.80;3.50;;;;;;;13.52;100.00;67608.16;5048768;28;20636;-67
2021/08/04 04:32:12;;;;;;;9.23;3.17;;;;;;;13.54;100.00;67609.94;5060657;28;20146;-67
2021/08/04 04:34:38;;;;;;;9.33;3.40;;;;;;;13.53;100.00;67941.88;5056280;28;20043;-67
2021/08/04 04:37:04;;;;;;;9.67;3.50;;;;;;;13.58;100.00;67948.41;5059817;28;20039;-67
2021/08/04 04:39:30;;;;;;;9.63;3.83;;;;;;;13.63;100.00;68953.47;5051320;28;20116;-67
2021/08/04 04:41:58;;;;;;;9.37;3.57;;;;;;;13.63;100.00;69286.78;5058338;28;20531;-67
2021/08/04 04:44:24;;;;;;;8.70;3.37;;;;;;;13.62;100.00;69285.56;5060387;28;20496;-67
2021/08/04 04:46:49;;;;;;;8.83;3.17;;;;;;;13.65;100.00;69956.53;5072432;28;20032;-67
2021/08/04 04:49:15;;;;;;;12.37;4.33;;;;;;;13.66;100.00;69624.34;5066488;28;20280;-67
2021/08/04 04:51:41;;;;;;;8.80;3.40;;;;;;;13.66;100.00;67624.72;5063099;28;20032;-67
2021/08/04 04:54:06;;;;;;;15.80;3.67;;;;;;;13.69;100.00;67960.91;5050892;28;20043;-67
2021/08/04 04:56:32;;;;;;;16.80;4.13;;;;;;;13.71;100.00;68629.81;5072056;28;20043;-67
2021/08/04 04:58:57;;;;;;;13.23;3.40;;;;;;;13.74;100.00;69633.50;5066612;28;20033;-67
2021/08/04 05:01:23;;;;;;;11.67;3.80;;;;;;;13.80;100.00;71642.03;5059137;28;20476;-67
2021/08/04 05:03:48;;;;;;;9.60;3.83;;;;;;;13.73;100.00;68966.13;5062650;28;20051;-67
2021/08/04 05:06:13;;;;;;;11.03;3.77;;;;;;;13.73;100.00;66632.91;5064577;28;20050;-67
2021/08/04 05:08:39;;;;;;;7.40;3.47;;;;;;;13.74;100.00;63970.72;5064679;28;20056;-67
2021/08/04 05:11:04;;;;;;;10.60;3.63;;;;;;;13.80;100.00;62645.56;5059234;28;20408;-67
2021/08/04 05:13:30;;;;;;;7.57;2.87;;;;;;;13.76;100.00;57653.72;5062281;28;20060;-67
2021/08/04 05:15:56;;;;;;;9.10;3.17;;;;;;;13.75;100.00;54995.78;5079579;28;20066;-67
2021/08/04 05:18:21;;;;;;;8.83;3.10;;;;;;;13.75;100.00;52673.13;5071001;28;20424;-67
2021/08/04 05:20:47;;;;;;;6.50;3.00;;;;;;;13.73;100.00;46042.72;5060398;28;20032;-67
2021/08/04 05:23:12;;;;;;;7.70;2.80;;;;;;;13.82;100.00;46049.72;5063122;28;20191;-67
2021/08/04 05:25:38;;;;;;;9.57;3.20;;;;;;;13.76;100.00;38768.13;5063950;28;20116;-67
2021/08/04 05:28:04;;;;;;;7.87;2.47;;;;;;;13.80;100.00;39762.31;5059790;28;20108;-67
2021/08/04 05:30:30;;;;;;;7.67;2.80;;;;;;;13.83;100.00;40425.63;5069525;28;20032;-67
2021/08/04 05:32:55;;;;;;;8.33;3.23;;;;;;;13.91;100.00;42415.50;5077171;28;20523;-67
2021/08/04 05:35:21;;;;;;;7.93;3.23;;;;;;;13.97;100.00;46724.56;5056734;28;20024;-67
2021/08/04 05:37:46;;;;;;;8.27;2.80;;;;;;;14.02;100.00;52034.06;5061809;28;20032;-67
2021/08/04 05:40:12;;;;;;;9.80;3.10;;;;;;;14.05;100.00;53032.56;5069114;28;20520;-67
2021/08/04 05:42:38;;;;;;;6.97;3.30;;;;;;;14.06;100.00;48389.19;5072695;28;20024;-67
2021/08/04 05:45:04;;;;;;;7.50;2.83;;;;;;;14.10;100.00;45409.38;5056401;28;20123;-67
2021/08/04 05:47:30;;;;;;;6.93;3.20;;;;;;;14.13;100.00;44418.19;5064598;28;20089;-67
2021/08/04 05:49:55;;;;;;;7.03;3.10;;;;;;;14.11;100.00;43092.31;5068958;28;20089;-67
2021/08/04 05:52:21;;;;;;;6.90;2.93;;;;;;;14.17;100.00;41773.03;5085247;28;20043;-67
2021/08/04 05:54:46;;;;;;;6.07;2.70;;;;;;;14.19;100.00;47073.47;5049831;28;20033;-67
2021/08/04 05:57:12;;;;;;;7.23;3.17;;;;;;;14.27;100.00;46086.25;5062242;28;20494;-67
2021/08/04 05:59:37;;;;;;;6.27;3.13;;;;;;;14.32;100.00;43770.84;5069689;28;20039;-67
2021/08/04 06:02:03;;;;;;;7.63;3.20;;;;;;;14.29;100.00;41451.44;5084600;28;20059;-67
2021/08/04 06:04:28;;;;;;;9.33;3.00;;;;;;;14.32;100.00;39799.25;5052053;28;20041;-67
2021/08/04 06:06:54;;;;;;;6.50;2.80;;;;;;;14.35;100.00;33521.72;5062455;28;20241;-67
2021/08/04 06:09:19;;;;;;;7.90;2.90;;;;;;;14.39;100.00;30223.28;5072808;28;20135;-67
2021/08/04 06:11:44;;;;;;;6.57;2.90;;;;;;;14.44;100.00;26269.41;5066631;28;20036;-67
2021/08/04 06:14:10;;;;;;;6.97;2.77;;;;;;;14.48;100.00;24953.41;5065053;28;20211;-67
2021/08/04 06:16:35;;;;;;;6.67;2.83;;;;;;;14.47;100.00;16727.59;5064926;28;20477;-67
2021/08/04 06:19:01;;;;;;;6.90;2.70;;;;;;;14.49;100.00;15742.56;5063064;28;20036;-67
2021/08/04 06:21:27;;;;;;;7.47;2.70;;;;;;;14.55;100.00;22980.34;5081884;28;20036;-67
2021/08/04 06:23:53;;;;;;;6.70;2.73;;;;;;;14.50;100.00;24624.94;5078974;28;20055;-67
2021/08/04 06:26:19;;;;;;;5.23;2.77;;;;;;;14.56;100.00;19689.94;5084806;28;20032;-67
2021/08/04 06:28:44;;;;;;;5.80;2.60;;;;;;;14.56;100.00;21005.97;5064057;28;20098;-67
2021/08/04 06:31:11;;;;;;;6.47;2.70;;;;;;;14.53;100.00;8524.00;5062127;28;20103;-67
2021/08/04 06:33:36;;;;;;;5.77;2.63;;;;;;;14.57;100.00;29903.38;5055714;28;20044;-67
2021/08/04 06:36:02;;;;;;;7.23;2.70;;;;;;;14.60;100.00;32876.13;5079007;28;20020;-67
2021/08/04 06:38:28;;;;;;;7.03;2.23;;;;;;;14.57;100.00;27594.47;5076097;28;20177;-67
2021/08/04 06:40:53;;;;;;;5.43;2.30;;;;;;;14.57;100.00;22322.72;5080444;28;20028;-67
2021/08/04 06:43:19;;;;;;;5.37;2.43;;;;;;;14.61;100.00;22324.66;5060817;28;20534;-67
2021/08/04 06:45:45;;;;;;;8.23;2.43;;;;;;;14.58;100.00;6886.28;5060946;28;20184;-67
2021/08/04 06:48:10;;;;;;;5.50;2.57;;;;;;;14.59;100.00;3611.22;5057456;28;20272;-66
2021/08/04 06:50:37;;;;;;;7.00;2.33;;;;;;;14.67;100.00;18378.03;5077476;28;20115;-67
2021/08/04 06:53:03;;;;;;;5.77;2.30;;;;;;;14.63;100.00;-1622.28;5074927;28;20029;-67
2021/08/04 06:55:28;;;;;;;6.53;2.17;;;;;;;14.64;100.00;-19547.38;5061351;28;20020;-67
2021/08/04 06:57:54;;;;;;;8.70;2.30;;;;;;;14.69;100.00;-19548.56;5063746;28;20074;-67
2021/08/04 07:00:19;;;;;;;6.30;2.53;;;;;;;14.72;100.00;-19549.22;5053451;28;20028;-67
2021/08/04 07:02:45;;;;;;;6.60;2.30;;;;;;;14.69;100.00;-19548.44;5079608;28;20044;-67
2021/08/04 07:05:11;;;;;;;4.20;2.07;;;;;;;14.73;100.00;-19549.50;5059551;28;20109;-66
2021/08/04 07:07:36;;;;;;;4.37;2.10;;;;;;;14.82;100.00;-4563.00;5062329;28;20044;-67
2021/08/04 07:10:02;;;;;;;6.03;2.40;;;;;;;14.86;100.00;-4889.72;5071683;28;20028;-67
2021/08/04 07:12:28;;;;;;;4.83;2.27;;;;;;;14.97;100.00;3287.97;5062964;28;20059;-67
2021/08/04 07:14:53;;;;;;;4.40;2.00;;;;;;;14.97;100.00;3615.53;5062285;28;20038;-67
2021/08/04 07:17:19;;;;;;;9.13;2.97;;;;;;;15.02;100.00;6565.78;5062846;28;20028;-67
2021/08/04 07:19:44;;;;;;;6.77;2.43;;;;;;;14.94;100.00;3615.28;5077846;28;20593;-67
2021/08/04 07:22:10;;;;;;;5.83;2.60;;;;;;;15.09;100.00;25971.06;5081587;28;20032;-67
2021/08/04 07:24:36;;;;;;;9.47;2.33;;;;;;;15.07;100.00;8206.47;5048740;28;20255;-67
2021/08/04 07:27:01;;;;;;;7.20;2.37;;;;;;;15.27;100.00;25649.44;5062444;28;20020;-67
2021/08/04 07:29:27;;;;;;;7.97;2.97;;;;;;;15.28;100.00;25649.91;5053866;28;20449;-67
2021/08/04 07:31:52;;;;;;;6.27;2.50;;;;;;;15.31;100.00;21035.56;5082515;28;20043;-67
2021/08/04 07:34:22;;;;;;;5.33;2.63;;;;;;;15.36;100.00;8212.00;5056401;28;20028;-67
2021/08/04 07:36:49;;;;;;;6.30;2.53;;;;;;;15.41;100.00;16100.41;5062720;28;20078;-67
2021/08/04 07:39:15;;;;;;;6.80;2.63;;;;;;;15.42;100.00;12154.59;5055243;28;20020;-67
2021/08/04 07:41:41;;;;;;;4.53;2.10;;;;;;;15.42;100.00;-4890.91;5065071;28;20489;-67
2021/08/04 07:44:06;;;;;;;6.20;2.70;;;;;;;15.43;100.00;-19567.56;5053328;28;20071;-67
2021/08/04 07:46:32;;;;;;;7.50;2.70;;;;;;;15.41;100.00;-19567.03;5061598;28;20029;-67
2021/08/04 07:48:57;;;;;;;9.73;2.67;;;;;;;15.47;100.00;-19568.59;5057253;28;20027;-67
2021/08/04 07:51:23;;;;;;;6.97;2.50;;;;;;;15.65;100.00;-19573.31;5081897;28;20043;-67
2021/08/04 07:53:48;;;;;;;6.57;2.40;;;;;;;15.71;100.00;-19338.91;5064633;28;20029;-67
2021/08/04 07:56:19;;;;;;;6.47;2.60;;;;;;;15.75;100.00;-19575.94;5061358;28;20023;-67
2021/08/04 07:58:47;;;;;;;7.67;2.60;;;;;;;15.90;100.00;-10776.28;5063298;28;20059;-67
2021/08/04 08:01:13;;;;;;;6.07;2.90;;;;;;;15.98;100.00;-19581.69;5062098;28;20036;-67
2021/08/04 08:03:38;;;;;;;8.50;2.60;;;;;;;16.08;100.00;-19584.28;5061724;28;20133;-67
2021/08/04 08:06:04;;;;;;;6.00;2.60;;;;;;;16.24;100.00;-19588.34;5070160;28;20231;-67
2021/08/04 08:08:29;;;;;;;6.97;3.03;;;;;;;16.44;100.00;-19593.56;5062216;28;20032;-67
2021/08/04 08:10:56;;;;;;;6.47;2.70;;;;;;;16.51;100.00;-19595.28;5070852;28;20043;-67
2021/08/04 08:13:22;;;;;;;8.47;2.50;;;;;;;16.63;100.00;-19598.53;5062587;28;20032;-67
2021/08/04 08:15:48;;;;;;;9.33;2.80;;;;;;;16.68;100.00;-19599.72;5070462;28;20023;-67
2021/08/04 08:18:14;;;;;;;5.87;2.90;;;;;;;16.65;100.00;-19598.94;5070269;28;20472;-67
2021/08/04 08:20:40;;;;;;;6.87;2.97;;;;;;;16.51;100.00;-19595.41;5061851;28;20044;-67
2021/08/04 08:23:10;;;;;;;7.47;3.20;;;;;;;16.50;100.00;-19595.13;5064632;28;20036;-67
2021/08/04 08:25:37;;;;;;;8.47;3.20;;;;;;;16.79;100.00;-19602.47;5082533;28;20193;-67
2021/08/04 08:28:06;;;;;;;6.53;3.13;;;;;;;16.80;100.00;-19602.84;5077768;28;20035;-67
2021/08/04 08:30:32;;;;;;;6.40;3.30;;;;;;;16.75;100.00;-19601.53;5063060;28;20031;-67
2021/08/04 08:32:57;;;;;;;9.60;2.90;;;;;;;17.11;100.00;-19610.69;5072236;28;20173;-67
2021/08/04 08:35:23;;;;;;;7.23;2.73;;;;;;;17.12;100.00;-19610.94;5064647;28;20187;-67
2021/08/04 08:37:49;;;;;;;10.03;2.97;;;;;;;17.19;100.00;-19612.91;5077952;28;20028;-67
2021/08/04 08:40:16;;;;;;;6.20;2.53;;;;;;;17.04;100.00;-19608.84;5054254;28;20032;-67
2021/08/04 08:42:47;;;;;;;6.73;2.90;;;;;;;17.33;100.00;-19616.44;5061435;28;20063;-67
2021/08/04 08:45:13;;;;;;;7.63;2.60;;;;;;;17.51;100.00;-19621.00;5064919;28;20091;-67
2021/08/04 08:47:40;;;;;;;6.23;2.60;;;;;;;17.65;100.00;-19624.50;5079043;28;20447;-67
2021/08/04 08:50:07;;;;;;;5.17;2.23;;;;;;;17.53;100.00;-19621.66;5051788;28;20168;-67
2021/08/04 08:52:33;;;;;;;4.77;2.33;;;;;;;17.37;100.00;-19617.47;5059532;28;20024;-67
2021/08/04 08:55:01;;;;;;;5.60;2.37;;;;;;;17.19;100.00;-19612.78;5051200;28;20284;-67
2021/08/04 08:57:27;;;;;;;6.20;2.40;;;;;;;17.41;100.00;-19618.50;5059788;28;20190;-67
2021/08/04 08:59:55;;;;;;;7.50;2.40;;;;;;;17.40;100.00;-19618.25;5065365;28;20036;-67
2021/08/04 09:02:21;;;;;;;8.67;2.50;;;;;;;17.68;100.00;-19625.28;5079730;28;20052;-67
2021/08/04 09:05:02;;;;;;;6.20;2.70;;;;;;;17.54;100.00;-19621.91;5055068;28;20136;-67
2021/08/04 09:07:38;;;;;;;6.40;2.50;;;;;;;17.46;100.00;-19619.81;5060031;28;20366;-67
2021/08/04 09:10:33;;;;;;;9.30;2.73;;;;;;;17.75;100.00;-19627.13;5072407;28;20040;-67
2021/08/04 09:13:07;;;;;;;4.87;2.43;;;;;;;17.56;100.00;-19622.44;5052299;28;20104;-67
2021/08/04 09:15:39;;;;;;;5.53;2.40;;;;;;;17.36;100.00;-19617.22;5080173;28;20016;-67
2021/08/04 09:18:11;;;;;;;4.60;2.45;;;;;;;17.52;100.00;-19621.38;5074102;28;20060;-67
2021/08/04 09:20:53;;;;;;;5.05;2.45;;;;;;;17.78;100.00;-19627.91;5060481;28;20151;-67
2021/08/04 09:23:24;;;;;;;6.13;2.33;;;;;;;17.80;100.00;-19628.44;5065136;28;20036;-67
2021/08/04 09:26:13;;;;;;;5.87;2.90;;;;;;;17.84;100.00;-19629.47;5079512;28;20036;-67
2021/08/04 09:28:59;;;;;;;6.67;2.70;;;;;;;18.04;100.00;-19634.69;5061027;28;20025;-67
2021/08/04 09:31:48;;;;;;;7.20;2.60;;;;;;;18.31;100.00;-19641.47;5058762;28;20020;-67
2021/08/04 09:34:40;;;;;;;5.27;2.37;;;;;;;18.61;100.00;-19649.16;5049975;28;20029;-67
2021/08/04 09:37:12;;;;;;;5.45;2.38;;;;;;;18.68;100.00;-19651.00;5079613;28;20391;-67
2021/08/04 09:39:39;;;;;;;4.85;2.30;;;;;;;19.31;100.00;-19667.25;5050777;28;20162;-68
2021/08/04 09:42:06;;;;;;;5.28;2.13;;;;;;;19.51;100.00;-19672.34;5058892;28;20036;-68
2021/08/04 09:44:32;;;;;;;4.97;2.35;;;;;;;19.31;100.00;-19667.25;5052851;28;20400;-67
2021/08/04 09:47:12;;;;;;;5.95;2.25;;;;;;;19.35;100.00;-19668.19;5079460;28;20094;-68
2021/08/04 09:49:39;;;;;;;5.30;2.30;;;;;;;19.48;100.00;-19671.44;5053205;28;20447;-68
2021/08/04 09:52:09;;;;;;;5.75;1.90;;;;;;;19.55;100.00;-19673.25;5073729;28;20035;-68
2021/08/04 09:54:37;;;;;;;5.85;2.10;;;;;;;19.61;100.00;-19674.81;5059609;28;20165;-68
2021/08/04 09:57:03;;;;;;;4.90;1.70;;;;;;;19.78;100.00;-19679.13;5079203;28;20028;-68
2021/08/04 09:59:29;;;;;;;5.88;1.73;;;;;;;19.82;100.00;-19680.16;5056451;28;20044;-68
2021/08/04 10:01:57;;;;;;;4.72;1.60;;;;;;;20.23;100.00;-19690.69;5058705;28;20020;-68
2021/08/04 10:04:22;;;;;;;3.72;1.67;;;;;;;20.21;100.00;-19690.16;5063731;28;20078;-68
2021/08/04 10:06:48;;;;;;;5.93;1.70;;;;;;;19.92;100.00;-19682.63;5079825;28;20028;-68
2021/08/04 10:09:18;;;;;;;7.85;1.95;;;;;;;19.95;100.00;-19683.53;5064338;28;20028;-68
2021/08/04 10:11:47;;;;;;;3.30;1.50;;;;;;;20.21;100.00;-19690.16;5062511;28;20169;-68
2021/08/04 10:14:16;;;;;;;4.70;1.80;;;;;;;20.18;100.00;-19689.38;5071227;28;20531;-68
2021/08/04 10:16:44;;;;;;;4.28;1.65;;;;;;;20.07;100.00;-19686.66;5082867;28;20071;-68
2021/08/04 10:19:10;;;;;;;6.30;2.00;;;;;;;20.23;100.00;-19690.56;5067477;28;20040;-68
2021/08/04 10:21:37;;;;;;;4.55;1.70;;;;;;;20.55;100.00;-19698.88;5062759;28;20105;-68
2021/08/04 10:24:06;;;;;;;3.30;1.70;;;;;;;20.65;100.00;-19701.34;5074143;28;20423;-68
2021/08/04 10:26:34;;;;;;;4.75;1.77;;;;;;;20.81;100.00;-19705.50;5082811;28;20533;-68
2021/08/04 10:29:00;;;;;;;3.28;1.50;;;;;;;21.63;100.00;-19726.41;5058636;28;20086;-69
2021/08/04 10:31:26;;;;;;;3.92;1.42;;;;;;;22.23;100.00;-19741.72;5061995;28;20028;-69
2021/08/04 10:33:54;;;;;;;2.88;1.27;;;;;;;23.19;100.00;-19766.09;5051481;28;20093;-69
2021/08/04 10:36:21;;;;;;;2.90;1.20;;;;;;;23.48;98.58;-19773.47;5081720;28;20164;-68
2021/08/04 10:38:52;;;;;;;3.53;1.20;;;;;;;23.55;100.00;-19775.41;5062201;28;20083;-69
2021/08/04 10:41:22;;;;;;;3.88;1.40;;;;;;;23.50;100.00;-19773.97;5049247;28;20161;-69
2021/08/04 10:43:56;;;;;;;3.92;1.38;;;;;;;23.56;100.00;-19775.53;5052493;28;20148;-69
2021/08/04 10:46:48;;;;;;;2.53;1.02;;;;;;;23.49;99.42;-19773.72;5082718;28;20116;-69
2021/08/04 10:49:41;;;;;;;2.45;0.98;;;;;;;23.04;100.00;-19762.31;5056554;28;20435;-69
2021/08/04 10:52:11;;;;;;;4.18;1.20;;;;;;;23.23;98.64;-19767.25;5059361;28;20102;-69
2021/08/04 10:54:37;;;;;;;2.38;1.10;;;;;;;23.56;85.57;-19775.53;5064035;28;20031;-69
2021/08/04 10:57:06;;;;;;;4.70;1.13;;;;;;;23.82;83.21;-19782.25;5082058;28;20380;-69
2021/08/04 10:59:33;;;;;;;3.15;1.30;;;;;;;24.06;76.13;-19788.22;5058865;28;20066;-68
2021/08/04 11:02:30;;;;;;;2.17;0.98;;;;;;;23.77;76.17;-19780.97;5061469;28;20389;-68
2021/08/04 11:04:56;;;;;;;3.70;1.20;;;;;;;23.79;83.63;-19781.34;5065945;28;20597;-68
2021/08/04 11:07:22;;;;;;;2.80;1.20;;;;;;;24.06;76.37;-19788.34;5081936;28;20081;-69
2021/08/04 11:09:58;;;;;;;2.60;1.05;;;;;;;23.64;76.84;-19777.72;5059269;28;20353;-69
2021/08/04 11:12:41;;;;;;;2.38;1.00;;;;;;;24.82;70.59;-19807.59;5062243;28;20534;-69
2021/08/04 11:15:20;;;;;;;1.90;0.85;;;;;;;24.28;67.38;-19793.91;5080217;28;20448;-68
2021/08/04 11:18:14;;;;;;;1.45;0.85;;;;;;;23.24;69.57;-19767.50;5077700;28;20077;-68
2021/08/04 11:21:15;;;;;;;1.75;0.85;;;;;;;23.23;73.32;-19767.13;5047910;28;20041;-68
2021/08/04 11:23:48;;;;;;;2.28;0.75;;;;;;;22.98;72.69;-19760.78;5069798;28;20084;-68
2021/08/04 11:26:37;;;;;;;3.50;1.25;;;;;;;22.77;75.38;-19755.59;5081255;28;20388;-69